createdAt,value
2022-09-20T00:02:09.830Z,8.20
2022-09-20T00:05:33.336Z,8.20
2022-09-20T00:08:55.137Z,8.30
2022-09-20T00:12:18.021Z,8.30
2022-09-20T00:15:43.300Z,8.40
2022-09-20T00:19:05.452Z,8.40
2022-09-20T00:22:27.125Z,8.40
2022-09-20T00:25:55.316Z,8.40
2022-09-20T00:29:18.258Z,8.50
2022-09-20T00:32:40.210Z,8.40
2022-09-20T00:36:01.976Z,8.40
2022-09-20T00:39:23.604Z,8.30
2022-09-20T00:42:45.122Z,8.30
2022-09-20T00:46:15.284Z,8.30
2022-09-20T00:49:37.718Z,8.30
2022-09-20T00:53:02.395Z,8.30
2022-09-20T00:56:25.402Z,8.30
2022-09-20T00:59:47.851Z,8.30
2022-09-20T01:03:11.193Z,8.40
2022-09-20T01:06:33.084Z,8.30
2022-09-20T01:09:54.634Z,8.30
2022-09-20T01:13:16.214Z,8.40
2022-09-20T01:16:37.885Z,8.30
2022-09-20T01:20:11.204Z,8.30
2022-09-20T01:23:41.024Z,8.20
2022-09-20T01:27:09.522Z,8.10
2022-09-20T01:30:36.806Z,8.00
2022-09-20T01:33:59.584Z,7.90
2022-09-20T01:37:24.443Z,7.80
2022-09-20T01:40:50.361Z,7.80
2022-09-20T01:44:13.475Z,7.80
2022-09-20T01:47:40.229Z,7.80
2022-09-20T01:51:22.015Z,7.70
2022-09-20T01:54:49.354Z,7.70
2022-09-20T01:58:32.534Z,7.80
2022-09-20T02:02:08.673Z,7.80
2022-09-20T02:05:46.851Z,7.80
2022-09-20T02:09:29.730Z,7.80
2022-09-20T02:12:55.521Z,7.80
2022-09-20T02:16:24.940Z,7.80
2022-09-20T02:20:05.341Z,7.80
2022-09-20T02:23:37.455Z,7.80
2022-09-20T02:27:07.663Z,7.80
2022-09-20T02:30:34.677Z,7.80
2022-09-20T02:34:02.386Z,7.80
2022-09-20T02:37:35.487Z,7.80
2022-09-20T02:41:08.103Z,7.90
2022-09-20T02:44:38.928Z,7.90
2022-09-20T02:48:02.689Z,7.90
2022-09-20T02:51:26.869Z,7.90
2022-09-20T02:54:54.005Z,8.00
2022-09-20T02:58:25.993Z,8.00
2022-09-20T03:01:50.505Z,8.00
2022-09-20T03:05:14.424Z,8.10
2022-09-20T03:08:39.342Z,8.10
2022-09-20T03:12:04.546Z,8.10
2022-09-20T03:15:32.799Z,8.10
2022-09-20T03:19:00.387Z,8.10
2022-09-20T03:22:29.066Z,8.00
2022-09-20T03:25:53.491Z,8.00
2022-09-20T03:29:21.157Z,8.00
2022-09-20T03:32:55.304Z,8.00
2022-09-20T03:36:24.750Z,8.00
2022-09-20T03:39:56.948Z,8.10
2022-09-20T03:43:25.647Z,8.10
2022-09-20T03:46:47.873Z,8.10
2022-09-20T03:50:23.426Z,8.10
2022-09-20T03:54:02.721Z,8.10
2022-09-20T03:57:42.053Z,8.10
2022-09-20T04:01:09.100Z,8.20
2022-09-20T04:04:32.875Z,8.20
2022-09-20T04:08:02.614Z,8.10
2022-09-20T04:11:27.719Z,8.20
2022-09-20T04:14:53.196Z,8.20
2022-09-20T04:18:19.867Z,8.20
2022-09-20T04:21:43.780Z,8.20
2022-09-20T04:25:14.392Z,8.30
2022-09-20T04:28:39.409Z,8.30
2022-09-20T04:32:02.803Z,8.30
2022-09-20T04:35:30.417Z,8.30
2022-09-20T04:38:55.500Z,8.20
2022-09-20T04:42:32.906Z,8.20
2022-09-20T04:46:03.951Z,8.20
2022-09-20T04:49:39.344Z,8.20
2022-09-20T04:53:21.875Z,8.20
2022-09-20T04:56:52.012Z,8.30
2022-09-20T05:00:16.690Z,8.40
2022-09-20T05:03:45.424Z,8.40
2022-09-20T05:07:25.450Z,8.40
2022-09-20T05:11:01.900Z,8.30
2022-09-20T05:14:38.696Z,8.30
2022-09-20T05:18:13.121Z,8.40
2022-09-20T05:21:43.485Z,8.40
2022-09-20T05:25:23.094Z,8.40
2022-09-20T05:28:49.722Z,8.50
2022-09-20T05:32:14.528Z,8.50
2022-09-20T05:35:42.179Z,8.50
2022-09-20T05:39:08.066Z,8.60
2022-09-20T05:42:35.444Z,8.60
2022-09-20T05:46:02.577Z,8.60
2022-09-20T05:49:32.517Z,8.60
2022-09-20T05:52:58.536Z,8.70
2022-09-20T05:56:26.395Z,8.60
2022-09-20T05:59:56.835Z,8.60
2022-09-20T06:03:22.984Z,8.70
2022-09-20T06:06:51.755Z,8.90
2022-09-20T06:10:23.143Z,9.10
2022-09-20T06:13:50.172Z,9.40
2022-09-20T06:17:16.347Z,9.80
2022-09-20T06:20:44.673Z,9.90
2022-09-20T06:24:11.759Z,10.00
2022-09-20T06:27:37.904Z,10.00
2022-09-20T06:30:59.588Z,10.20
2022-09-20T06:34:21.230Z,10.30
2022-09-20T06:37:44.506Z,10.30
2022-09-20T06:41:08.266Z,10.40
2022-09-20T06:44:31.192Z,10.30
2022-09-20T06:47:52.842Z,10.30
2022-09-20T06:51:14.451Z,10.30
2022-09-20T06:54:36.232Z,10.40
2022-09-20T06:57:57.959Z,10.80
2022-09-20T07:01:29.759Z,11.30
2022-09-20T07:04:51.910Z,11.70
2022-09-20T07:08:13.666Z,11.90
2022-09-20T07:11:35.247Z,11.80
2022-09-20T07:14:56.777Z,12.00
2022-09-20T07:18:19.670Z,12.00
2022-09-20T07:21:41.213Z,12.20
2022-09-20T07:25:02.780Z,12.60
2022-09-20T07:28:24.328Z,12.40
2022-09-20T07:31:45.948Z,12.30
2022-09-20T07:35:09.628Z,12.20
2022-09-20T07:38:31.213Z,12.10
2022-09-20T07:41:52.816Z,11.90
2022-09-20T07:45:14.540Z,12.00
2022-09-20T07:48:36.177Z,12.00
2022-09-20T07:51:59.108Z,11.90
2022-09-20T07:55:20.679Z,11.90
2022-09-20T07:58:42.677Z,12.00
2022-09-20T08:02:04.354Z,12.60
2022-09-20T08:05:26.026Z,13.90
2022-09-20T08:08:49.242Z,16.70
2022-09-20T08:15:52.372Z,18.70
2022-09-20T08:19:15.217Z,16.70
2022-09-20T08:22:36.760Z,15.20
2022-09-20T08:25:59.658Z,13.90
2022-09-20T08:29:21.203Z,13.20
2022-09-20T08:32:42.764Z,12.80
2022-09-20T08:36:04.454Z,12.50
2022-09-20T08:43:09.757Z,12.80
2022-09-20T08:46:32.784Z,14.90
2022-09-20T08:49:56.765Z,17.70
2022-09-20T08:53:21.263Z,19.80
2022-09-20T08:56:43.554Z,21.90
2022-09-20T09:00:07.530Z,23.20
2022-09-20T09:03:29.065Z,23.70
2022-09-20T09:06:51.438Z,24.10
2022-09-20T09:10:12.985Z,23.90
2022-09-20T09:13:37.345Z,21.90
2022-09-20T09:17:00.297Z,20.10
2022-09-20T09:20:22.866Z,18.50
2022-09-20T09:23:46.982Z,17.90
2022-09-20T09:27:13.796Z,18.30
2022-09-20T09:30:36.092Z,18.60
2022-09-20T09:33:59.020Z,20.00
2022-09-20T09:37:28.817Z,21.10
2022-09-20T09:40:52.143Z,21.30
2022-09-20T09:44:23.836Z,21.00
2022-09-20T09:47:45.401Z,19.60
2022-09-20T09:51:09.881Z,18.10
2022-09-20T09:54:33.261Z,16.70
2022-09-20T09:57:59.964Z,15.80
2022-09-20T10:01:29.939Z,15.70
2022-09-20T10:04:57.096Z,15.30
2022-09-20T10:08:25.218Z,15.40
2022-09-20T10:11:55.913Z,16.20
2022-09-20T10:15:26.396Z,16.00
2022-09-20T10:18:49.844Z,15.80
2022-09-20T10:22:16.202Z,15.50
2022-09-20T10:25:41.107Z,15.00
2022-09-20T10:29:08.487Z,14.40
2022-09-20T10:32:45.330Z,14.00
2022-09-20T10:36:14.287Z,13.70
2022-09-20T10:39:37.157Z,13.80
2022-09-20T10:43:08.232Z,14.00
2022-09-20T10:46:35.549Z,14.10
2022-09-20T10:50:00.275Z,14.40
2022-09-20T10:53:25.416Z,14.80
2022-09-20T10:56:49.154Z,15.20
2022-09-20T11:00:19.026Z,15.40
2022-09-20T11:03:51.358Z,15.30
2022-09-20T11:07:17.450Z,15.60
2022-09-20T11:10:42.305Z,16.10
2022-09-20T11:14:05.472Z,16.20
2022-09-20T11:17:30.046Z,16.20
2022-09-20T11:20:55.303Z,16.10
2022-09-20T11:24:22.016Z,16.00
2022-09-20T11:27:45.139Z,16.00
2022-09-20T11:31:10.186Z,16.00
2022-09-20T11:34:36.346Z,16.00
2022-09-20T11:38:02.931Z,16.20
2022-09-20T11:41:26.209Z,15.90
2022-09-20T11:44:48.013Z,15.70
2022-09-20T11:48:10.827Z,15.70
2022-09-20T11:51:46.007Z,15.60
2022-09-20T11:55:19.902Z,15.30
2022-09-20T11:58:45.568Z,15.10
2022-09-20T12:02:17.119Z,15.30
2022-09-20T12:05:40.605Z,15.70
2022-09-20T12:09:04.548Z,16.30
2022-09-20T12:12:30.444Z,16.90
2022-09-20T12:15:58.316Z,17.10
2022-09-20T12:19:34.776Z,16.90
2022-09-20T12:23:11.244Z,16.30
2022-09-20T12:26:36.867Z,15.80
2022-09-20T12:30:07.401Z,15.60
2022-09-20T12:33:49.022Z,15.60
2022-09-20T12:37:17.636Z,15.50
2022-09-20T12:40:54.095Z,15.50
2022-09-20T12:44:28.602Z,16.00
2022-09-20T12:47:52.351Z,16.20
2022-09-20T12:51:18.864Z,16.20
2022-09-20T12:54:51.476Z,16.20
2022-09-20T12:58:34.168Z,16.10
2022-09-20T13:02:17.100Z,15.90
2022-09-20T13:05:39.581Z,15.90
2022-09-20T13:09:03.089Z,15.80
2022-09-20T13:12:26.202Z,15.80
2022-09-20T13:15:48.936Z,15.90
2022-09-20T13:19:16.174Z,16.10
2022-09-20T13:22:38.488Z,16.40
2022-09-20T13:26:00.446Z,16.80
2022-09-20T13:29:24.516Z,16.80
2022-09-20T13:32:46.351Z,16.80
2022-09-20T13:36:09.305Z,17.10
2022-09-20T13:39:32.867Z,17.10
2022-09-20T13:43:19.602Z,16.90
2022-09-20T13:46:43.125Z,16.30
2022-09-20T13:50:10.361Z,15.90
2022-09-20T13:53:41.483Z,15.60
2022-09-20T13:57:05.037Z,15.20
2022-09-20T14:00:27.484Z,15.10
2022-09-20T14:03:49.068Z,15.00
2022-09-20T14:07:13.605Z,15.10
2022-09-20T14:10:38.764Z,15.30
2022-09-20T14:14:01.850Z,15.40
2022-09-20T14:17:24.255Z,15.50
2022-09-20T14:20:46.110Z,15.60
2022-09-20T14:24:08.167Z,15.50
2022-09-20T14:27:31.088Z,15.30
2022-09-20T14:30:52.679Z,15.10
2022-09-20T14:34:14.326Z,14.80
2022-09-20T14:37:41.220Z,14.60
2022-09-20T14:41:03.031Z,14.40
2022-09-20T14:44:26.838Z,14.20
2022-09-20T14:47:56.858Z,13.90
2022-09-20T14:51:22.000Z,13.80
2022-09-20T14:54:43.794Z,13.70
2022-09-20T14:58:07.233Z,13.50
2022-09-20T15:01:30.244Z,13.50
2022-09-20T15:04:53.321Z,13.40
2022-09-20T15:08:15.019Z,13.40
2022-09-20T15:11:36.583Z,13.40
2022-09-20T15:14:58.157Z,13.50
2022-09-20T15:18:22.015Z,13.50
2022-09-20T15:21:43.547Z,13.70
2022-09-20T15:25:05.277Z,13.80
2022-09-20T15:28:26.850Z,14.00
2022-09-20T15:31:48.657Z,14.00
2022-09-20T15:35:12.178Z,14.10
2022-09-20T15:38:33.787Z,14.20
2022-09-20T15:41:55.407Z,14.50
2022-09-20T15:45:17.050Z,14.90
2022-09-20T15:48:38.592Z,15.30
2022-09-20T15:52:01.690Z,15.60
2022-09-20T15:55:23.253Z,15.40
2022-09-20T15:58:45.420Z,15.20
2022-09-20T16:02:07.001Z,15.00
2022-09-20T16:05:28.611Z,14.80
2022-09-20T16:08:51.867Z,14.60
2022-09-20T16:12:13.410Z,14.50
2022-09-20T16:15:34.971Z,14.20
2022-09-20T16:18:56.542Z,14.00
2022-09-20T16:22:18.078Z,13.80
2022-09-20T16:25:40.985Z,13.70
2022-09-20T16:29:02.596Z,13.50
2022-09-20T16:32:24.193Z,13.30
2022-09-20T16:35:47.500Z,13.10
2022-09-20T16:39:09.167Z,12.90
2022-09-20T16:42:32.082Z,12.70
2022-09-20T16:45:59.561Z,12.60
2022-09-20T16:49:21.177Z,12.50
2022-09-20T16:52:42.706Z,12.30
2022-09-20T16:56:04.402Z,12.20
2022-09-20T16:59:27.335Z,12.10
2022-09-20T17:02:48.937Z,12.00
2022-09-20T17:06:10.863Z,11.90
2022-09-20T17:09:32.427Z,11.80
2022-09-20T17:12:54.137Z,11.70
2022-09-20T17:16:18.123Z,11.70
2022-09-20T17:19:39.745Z,11.60
2022-09-20T17:23:01.268Z,11.60
2022-09-20T17:26:24.374Z,11.60
2022-09-20T17:29:45.928Z,11.60
2022-09-20T17:33:08.788Z,11.60
2022-09-20T17:36:31.132Z,11.60
2022-09-20T17:39:52.689Z,11.60
2022-09-20T17:43:14.975Z,11.60
2022-09-20T17:46:36.965Z,11.60
2022-09-20T17:50:00.883Z,11.50
2022-09-20T17:53:22.408Z,11.50
2022-09-20T17:56:44.505Z,11.40
2022-09-20T18:00:06.713Z,11.30
2022-09-20T18:03:28.293Z,11.30
2022-09-20T18:06:51.978Z,11.20
2022-09-20T18:10:13.587Z,11.10
2022-09-20T18:13:36.057Z,11.00
2022-09-20T18:16:58.429Z,11.00
2022-09-20T18:20:19.962Z,10.90
2022-09-20T18:23:43.478Z,10.80
2022-09-20T18:27:05.092Z,10.70
2022-09-20T18:30:26.675Z,10.70
2022-09-20T18:33:48.338Z,10.70
2022-09-20T18:37:14.386Z,10.60
2022-09-20T18:40:37.674Z,10.60
2022-09-20T18:43:59.744Z,10.50
2022-09-20T18:47:21.313Z,10.50
2022-09-20T18:50:42.966Z,10.40
2022-09-20T18:54:04.667Z,10.30
2022-09-20T18:57:28.037Z,10.20
2022-09-20T19:00:54.597Z,10.20
2022-09-20T19:04:24.776Z,10.20
2022-09-20T19:07:57.817Z,10.10
2022-09-20T19:11:25.745Z,10.10
2022-09-20T19:14:55.286Z,10.20
2022-09-20T19:18:24.757Z,10.20
2022-09-20T19:21:54.508Z,10.20
2022-09-20T19:25:20.871Z,10.20
2022-09-20T19:28:44.926Z,10.20
2022-09-20T19:32:14.807Z,10.10
2022-09-20T19:35:37.782Z,10.10
2022-09-20T19:39:03.063Z,10.20
2022-09-20T19:42:28.594Z,10.30
2022-09-20T19:45:55.935Z,10.30
2022-09-20T19:49:23.520Z,10.30
2022-09-20T19:52:45.445Z,10.40
2022-09-20T19:56:20.755Z,10.30
2022-09-20T19:59:42.483Z,10.30
2022-09-20T20:03:04.800Z,10.30
2022-09-20T20:06:32.300Z,10.20
2022-09-20T20:09:57.087Z,10.20
2022-09-20T20:13:21.815Z,10.10
2022-09-20T20:16:50.680Z,10.10
2022-09-20T20:20:15.856Z,10.00
2022-09-20T20:23:48.011Z,9.90
2022-09-20T20:27:09.538Z,9.80
2022-09-20T20:30:31.183Z,9.70
2022-09-20T20:33:52.710Z,9.60
2022-09-20T20:37:14.512Z,9.50
2022-09-20T20:40:37.643Z,9.40
2022-09-20T20:43:59.332Z,9.40
2022-09-20T20:47:21.036Z,9.30
2022-09-20T20:50:43.057Z,9.20
2022-09-20T20:54:05.181Z,9.20
2022-09-20T20:57:28.182Z,9.20
2022-09-20T21:00:49.734Z,9.20
2022-09-20T21:04:11.599Z,9.20
2022-09-20T21:07:33.174Z,9.10
2022-09-20T21:10:59.191Z,9.20
2022-09-20T21:14:22.056Z,9.20
2022-09-20T21:17:43.896Z,9.20
2022-09-20T21:21:12.732Z,9.20
2022-09-20T21:24:34.256Z,9.10
2022-09-20T21:27:55.821Z,9.00
2022-09-20T21:31:19.602Z,8.90
2022-09-20T21:34:41.181Z,8.80
2022-09-20T21:38:02.768Z,8.60
2022-09-20T21:41:25.084Z,8.60
2022-09-20T21:44:46.634Z,8.50
2022-09-20T21:48:09.639Z,8.50
2022-09-20T21:51:31.581Z,8.50
2022-09-20T21:54:53.182Z,8.40
2022-09-20T21:58:14.861Z,8.40
2022-09-20T22:01:37.646Z,8.30
2022-09-20T22:05:00.657Z,8.20
2022-09-20T22:08:25.247Z,8.10
2022-09-20T22:11:47.972Z,8.00
2022-09-20T22:15:10.007Z,8.00
2022-09-20T22:18:33.179Z,8.00
2022-09-20T22:21:56.053Z,7.90
2022-09-20T22:25:17.592Z,7.90
2022-09-20T22:28:39.428Z,7.90
2022-09-20T22:32:01.210Z,7.80
2022-09-20T22:35:22.828Z,7.70
2022-09-20T22:38:45.874Z,7.60
2022-09-20T22:42:07.415Z,7.50
2022-09-20T22:45:28.942Z,7.40
2022-09-20T22:48:50.493Z,7.40
2022-09-20T22:52:12.037Z,7.40
2022-09-20T22:55:34.912Z,7.30
2022-09-20T22:58:57.373Z,7.20
2022-09-20T23:02:18.934Z,7.10
2022-09-20T23:05:40.460Z,7.10
2022-09-20T23:09:02.982Z,7.10
2022-09-20T23:12:25.858Z,7.10
2022-09-20T23:15:47.366Z,7.10
2022-09-20T23:19:09.379Z,7.00
2022-09-20T23:22:31.025Z,7.00
2022-09-20T23:25:52.591Z,7.10
2022-09-20T23:29:16.154Z,7.00
2022-09-20T23:32:37.691Z,7.00
2022-09-20T23:35:59.259Z,6.90
2022-09-20T23:39:20.817Z,6.80
2022-09-20T23:42:42.477Z,6.80
2022-09-20T23:46:06.120Z,6.70
2022-09-20T23:49:27.713Z,6.70
2022-09-20T23:52:49.267Z,6.70
2022-09-20T23:56:11.385Z,6.60
2022-09-20T23:59:32.933Z,6.50
